Time;durP1;ratioP1;P1;durP2;ratioP2;P2;SDS_P1;SDS_P2;PMS_P1;PMS_P2;Temp;Humidity;BMP_temperature;BMP_pressure;BME280_temperature;BME280_humidity;BME280_pressure;Samples;Min_cycle;Max_cycle;Signal;HPM_P1;HPM_P2
2021/08/17 00:01:53;;;;;;;4.20;3.21;;;;;;;12.00;84.58;99687.84;2006462;80;20229;-78
2021/08/17 00:04:56;;;;;;;3.75;2.88;;;;;;;11.97;84.52;99694.78;2007846;80;20177;-77
2021/08/17 00:08:02;;;;;;;4.74;3.28;;;;;;;11.93;84.54;99691.34;2006754;80;20253;-76
2021/08/17 00:11:04;;;;;;;4.07;2.99;;;;;;;11.87;84.86;99687.94;2007807;80;20736;-77
2021/08/17 00:14:07;;;;;;;3.65;3.20;;;;;;;11.82;85.10;99687.94;2006570;80;20165;-76
2021/08/17 00:17:11;;;;;;;3.47;3.06;;;;;;;11.80;84.88;99687.94;2002579;78;20265;-77
2021/08/17 00:20:17;;;;;;;3.39;3.03;;;;;;;11.76;84.67;99686.19;2002045;81;20685;-77
2021/08/17 00:23:20;;;;;;;4.35;3.11;;;;;;;11.77;84.54;99689.66;2001559;81;20233;-78
2021/08/17 00:26:22;;;;;;;4.21;3.05;;;;;;;11.73;84.50;99685.34;2002387;81;20737;-78
2021/08/17 00:29:25;;;;;;;4.60;3.03;;;;;;;11.70;84.80;99674.97;2001993;81;20744;-77
2021/08/17 00:32:28;;;;;;;5.07;3.49;;;;;;;11.69;85.01;99681.03;2000886;78;20862;-77
2021/08/17 00:35:31;;;;;;;5.32;3.13;;;;;;;11.68;85.27;99674.09;2001817;81;20212;-79
2021/08/17 00:38:35;;;;;;;4.97;3.39;;;;;;;11.61;85.18;99678.44;2002044;81;20872;-78
2021/08/17 00:41:39;;;;;;;5.90;3.36;;;;;;;11.60;85.21;99681.91;2002142;81;20174;-77
2021/08/17 00:44:41;;;;;;;4.70;2.86;;;;;;;11.58;85.28;99682.81;2002254;81;20205;-77
2021/08/17 00:47:44;;;;;;;6.41;3.59;;;;;;;11.53;85.38;99682.81;2005750;78;20176;-76
2021/08/17 00:50:47;;;;;;;4.51;3.24;;;;;;;11.49;85.39;99686.31;2006693;80;20300;-76
2021/08/17 00:53:53;;;;;;;4.31;3.21;;;;;;;11.47;85.48;99688.03;2006178;80;20193;-77
2021/08/17 00:56:57;;;;;;;5.36;3.66;;;;;;;11.41;85.53;99686.31;2006999;80;20193;-77
2021/08/17 00:59:59;;;;;;;6.38;3.85;;;;;;;11.40;85.54;99692.41;2007253;80;20194;-76
2021/08/17 01:03:03;;;;;;;4.95;3.33;;;;;;;11.38;85.47;99688.94;2006179;78;35592;-78
2021/08/17 01:06:06;;;;;;;4.57;3.54;;;;;;;11.35;85.57;99694.16;2006344;80;20191;-77
2021/08/17 01:09:09;;;;;;;5.34;3.36;;;;;;;11.33;85.26;99700.22;2007008;80;20772;-78
2021/08/17 01:12:11;;;;;;;4.78;3.66;;;;;;;11.31;85.19;99694.13;2007534;80;20228;-76
2021/08/17 01:15:14;;;;;;;4.57;3.74;;;;;;;11.26;85.26;99694.16;2005309;80;20212;-77
2021/08/17 01:18:17;;;;;;;4.21;3.49;;;;;;;11.23;85.39;99696.78;2001306;78;20298;-77
2021/08/17 01:21:20;;;;;;;4.96;3.40;;;;;;;11.22;85.35;99695.03;2001526;81;20223;-77
2021/08/17 01:24:23;;;;;;;4.11;3.66;;;;;;;11.19;85.54;99700.25;2001827;81;20189;-77
2021/08/17 01:27:26;;;;;;;5.41;3.59;;;;;;;11.18;85.63;99699.38;2001834;81;20202;-77
2021/08/17 01:30:28;;;;;;;4.64;3.51;;;;;;;11.15;85.69;99711.53;2001776;81;20677;-77
2021/08/17 01:33:32;;;;;;;5.04;3.56;;;;;;;11.11;85.54;99704.56;2005143;78;21968;-77
2021/08/17 01:36:35;;;;;;;3.46;2.88;;;;;;;11.09;86.30;99707.19;2006453;80;20207;-77
2021/08/17 01:39:37;;;;;;;5.44;3.26;;;;;;;11.11;86.87;99697.66;2007307;80;20165;-79
2021/08/17 01:42:46;;;;;;;4.46;3.40;;;;;;;11.10;87.00;99703.72;2006700;80;20201;-77
2021/08/17 01:45:56;;;;;;;5.68;3.80;;;;;;;11.07;86.63;99708.94;2004228;78;20241;-77
2021/08/17 01:48:59;;;;;;;4.50;2.92;;;;;;;11.05;86.34;99712.41;2001690;81;20182;-77
2021/08/17 01:52:02;;;;;;;4.70;3.17;;;;;;;11.00;86.27;99715.00;2001593;81;20210;-77
2021/08/17 01:55:07;;;;;;;6.20;3.40;;;;;;;10.97;86.17;99721.94;2001743;81;20230;-77
2021/08/17 01:58:10;;;;;;;4.00;3.20;;;;;;;10.87;86.13;99713.28;2001790;81;20338;-77
2021/08/17 02:01:13;;;;;;;10.48;4.57;;;;;;;10.86;86.13;99717.59;2002914;77;20720;-78
2021/08/17 02:04:16;;;;;;;5.85;3.55;;;;;;;10.83;86.13;99714.16;2008287;80;20205;-77
2021/08/17 02:07:19;;;;;;;4.41;3.53;;;;;;;10.78;86.25;99721.09;2008248;80;20227;-77
2021/08/17 02:10:21;;;;;;;4.54;3.54;;;;;;;10.75;86.25;99721.94;2008420;80;20199;-79
2021/08/17 02:13:24;;;;;;;3.81;3.11;;;;;;;10.72;86.25;99731.44;2008506;80;20197;-78
2021/08/17 02:16:27;;;;;;;5.94;3.50;;;;;;;10.69;86.28;99732.31;2004833;78;20860;-77
2021/08/17 02:19:30;;;;;;;5.29;3.53;;;;;;;10.67;86.09;99733.19;2002967;81;20166;-78
2021/08/17 02:22:32;;;;;;;6.86;3.31;;;;;;;10.64;85.95;99731.47;2002777;81;20229;-78
2021/08/17 02:25:35;;;;;;;4.57;3.46;;;;;;;10.55;85.69;99729.72;2002437;81;20220;-77
2021/08/17 02:28:37;;;;;;;5.71;3.96;;;;;;;10.44;85.54;99730.56;2003012;81;20174;-78
2021/08/17 02:31:40;;;;;;;6.14;3.25;;;;;;;10.39;85.81;99735.75;2005714;77;20293;-76
2021/08/17 02:34:43;;;;;;;5.34;3.55;;;;;;;10.38;86.19;99740.94;2008195;80;20213;-77
2021/08/17 02:37:45;;;;;;;5.66;3.56;;;;;;;10.38;86.39;99736.59;2008538;80;20195;-77
2021/08/17 02:40:49;;;;;;;4.65;3.72;;;;;;;10.37;86.31;99744.38;2008548;80;20293;-79
2021/08/17 02:43:51;;;;;;;5.95;3.55;;;;;;;10.35;86.29;99739.19;2007992;80;20211;-77
2021/08/17 02:46:54;;;;;;;4.99;3.20;;;;;;;10.35;86.31;99733.16;2003697;78;20170;-77
2021/08/17 02:49:57;;;;;;;5.85;3.38;;;;;;;10.31;86.26;99740.06;2003325;81;20177;-77
2021/08/17 02:52:59;;;;;;;6.72;3.44;;;;;;;10.29;86.07;99726.22;2002624;81;20202;-78
2021/08/17 02:56:03;;;;;;;4.28;3.51;;;;;;;10.25;85.92;99729.69;2002728;81;20186;-77
2021/08/17 02:59:06;;;;;;;4.80;3.55;;;;;;;10.19;85.80;99725.28;2003545;81;20170;-77
2021/08/17 03:02:08;;;;;;;4.65;4.01;;;;;;;10.15;85.75;99720.97;2004474;78;23107;-77
2021/08/17 03:05:11;;;;;;;5.97;3.92;;;;;;;10.06;85.74;99728.72;2007339;80;20196;-78
2021/08/17 03:08:14;;;;;;;3.75;3.30;;;;;;;9.97;85.94;99732.16;2007348;80;20194;-77
2021/08/17 03:11:17;;;;;;;4.31;3.50;;;;;;;9.95;86.40;99726.09;2005942;80;20165;-77
2021/08/17 03:14:19;;;;;;;4.36;3.58;;;;;;;9.97;86.61;99731.28;2007679;80;20211;-77
2021/08/17 03:17:22;;;;;;;4.55;3.04;;;;;;;9.97;86.71;99732.16;2002558;79;21001;-76
2021/08/17 03:20:25;;;;;;;7.09;3.61;;;;;;;9.96;86.72;99729.53;2002616;81;20170;-79
2021/08/17 03:23:28;;;;;;;6.32;4.11;;;;;;;9.96;86.59;99737.34;2001988;81;20230;-76
2021/08/17 03:26:31;;;;;;;3.99;3.10;;;;;;;9.95;86.51;99728.69;2002458;81;20283;-77
2021/08/17 03:29:33;;;;;;;7.64;3.56;;;;;;;9.94;86.31;99724.34;2003367;81;20441;-77
2021/08/17 03:32:36;;;;;;;4.57;4.06;;;;;;;9.94;86.39;99715.72;2006001;78;21979;-76
2021/08/17 03:35:38;;;;;;;5.76;3.46;;;;;;;9.91;86.20;99710.50;2003240;80;20331;-78
2021/08/17 03:38:41;;;;;;;5.91;3.85;;;;;;;9.89;86.30;99718.28;2008205;80;20209;-77
2021/08/17 03:41:43;;;;;;;5.56;3.75;;;;;;;9.86;86.19;99709.63;2006797;80;20440;-77
2021/08/17 03:44:46;;;;;;;5.54;3.95;;;;;;;9.84;86.16;99708.75;2006985;80;20607;-78
2021/08/17 03:47:50;;;;;;;5.93;3.85;;;;;;;9.80;86.01;99715.66;2001417;78;21407;-77
2021/08/17 03:50:53;;;;;;;6.99;4.30;;;;;;;9.75;85.95;99717.38;2002377;81;20199;-78
2021/08/17 03:53:56;;;;;;;6.10;4.25;;;;;;;9.72;85.94;99712.19;2002054;81;20178;-76
2021/08/17 03:56:59;;;;;;;5.86;4.10;;;;;;;9.70;85.95;99713.91;2002388;81;20363;-77
2021/08/17 04:00:03;;;;;;;6.86;4.31;;;;;;;9.68;86.04;99721.66;2001873;80;20777;-77
2021/08/17 04:03:07;;;;;;;9.20;4.10;;;;;;;9.68;86.33;99720.78;2002076;78;20675;-77
2021/08/17 04:06:11;;;;;;;5.26;3.56;;;;;;;9.64;86.53;99719.91;2002408;81;20219;-78
2021/08/17 04:09:13;;;;;;;5.01;3.92;;;;;;;9.64;86.64;99729.41;2002477;81;20652;-77
2021/08/17 04:12:16;;;;;;;4.76;3.74;;;;;;;9.62;86.53;99729.41;2001769;81;20182;-78
2021/08/17 04:15:18;;;;;;;4.40;3.33;;;;;;;9.61;86.36;99730.25;2000909;80;20182;-78
2021/08/17 04:18:21;;;;;;;5.14;3.63;;;;;;;9.59;86.21;99731.13;2001794;79;23081;-77
2021/08/17 04:21:24;;;;;;;6.44;4.00;;;;;;;9.50;86.02;99733.66;2001725;81;20185;-78
2021/08/17 04:24:26;;;;;;;6.72;4.22;;;;;;;9.47;86.22;99744.00;2002101;81;20209;-78
2021/08/17 04:27:29;;;;;;;5.39;3.75;;;;;;;9.45;86.59;99753.50;2001977;81;20235;-77
2021/08/17 04:30:32;;;;;;;8.30;4.30;;;;;;;9.44;87.25;99747.44;2001911;79;20351;-78
2021/08/17 04:33:34;;;;;;;5.05;3.61;;;;;;;9.47;87.48;99741.41;2002613;81;20213;-77
2021/08/17 04:36:37;;;;;;;7.29;4.09;;;;;;;9.50;87.49;99736.25;2002257;81;20198;-78
2021/08/17 04:39:40;;;;;;;7.09;4.18;;;;;;;9.53;87.37;99736.28;2002419;81;20185;-78
2021/08/17 04:42:42;;;;;;;7.89;4.75;;;;;;;9.53;87.21;99742.34;2001859;81;20186;-77
2021/08/17 04:45:45;;;;;;;8.19;4.10;;;;;;;9.55;87.28;99750.13;2003323;78;21872;-79
2021/08/17 04:48:50;;;;;;;6.74;4.35;;;;;;;9.57;87.17;99749.25;2007856;80;20221;-74
2021/08/17 04:51:52;;;;;;;6.74;4.04;;;;;;;9.59;87.15;99732.00;2006914;80;20320;-77
2021/08/17 04:54:55;;;;;;;7.00;4.35;;;;;;;9.63;87.19;99736.31;2006871;80;20571;-77
2021/08/17 04:57:59;;;;;;;6.63;4.11;;;;;;;9.67;87.10;99750.16;2007742;80;20221;-80
2021/08/17 05:01:02;;;;;;;6.34;4.46;;;;;;;9.71;86.95;99764.91;2001023;78;20272;-75
2021/08/17 05:04:07;;;;;;;9.63;4.84;;;;;;;9.73;87.04;99764.91;2002065;81;20720;-75
2021/08/17 05:07:10;;;;;;;8.20;5.10;;;;;;;9.77;87.13;99769.25;2001638;81;20282;-76
2021/08/17 05:10:19;;;;;;;8.48;4.79;;;;;;;9.81;87.12;99770.97;2002335;81;20638;-76
2021/08/17 05:13:21;;;;;;;8.00;5.04;;;;;;;9.85;87.10;99775.31;2001852;81;20195;-76
2021/08/17 05:16:24;;;;;;;8.69;5.39;;;;;;;9.85;87.00;99778.78;2003828;78;20622;-76
2021/08/17 05:19:27;;;;;;;11.38;5.18;;;;;;;9.87;87.12;99776.19;2006941;80;20266;-79
2021/08/17 05:22:30;;;;;;;9.23;5.54;;;;;;;9.86;86.91;99784.81;2007282;80;20224;-78
2021/08/17 05:25:32;;;;;;;10.23;5.88;;;;;;;9.84;86.90;99787.41;2007157;80;20230;-75
2021/08/17 05:28:35;;;;;;;9.75;5.63;;;;;;;9.85;86.86;99794.34;2007553;80;20677;-76
2021/08/17 05:31:38;;;;;;;8.43;5.51;;;;;;;9.89;86.78;99787.47;2003498;78;20948;-75
2021/08/17 05:34:40;;;;;;;9.75;5.61;;;;;;;9.88;86.86;99785.72;2002555;81;20174;-77
2021/08/17 05:37:43;;;;;;;8.65;5.51;;;;;;;9.89;87.02;99787.47;2002142;81;20301;-78
2021/08/17 05:40:45;;;;;;;9.26;5.29;;;;;;;9.90;86.99;99782.28;2002239;81;20278;-76
2021/08/17 05:43:48;;;;;;;9.07;5.88;;;;;;;9.91;86.95;99781.41;2002276;81;20209;-78
2021/08/17 05:46:50;;;;;;;10.48;5.50;;;;;;;10.05;87.06;99784.03;2005041;78;35900;-79
2021/08/17 05:49:53;;;;;;;7.68;5.34;;;;;;;10.46;86.59;99781.63;2008134;80;20198;-79
2021/08/17 05:52:56;;;;;;;8.40;5.31;;;;;;;11.03;85.42;99794.69;2003351;80;20177;-78
2021/08/17 05:55:58;;;;;;;7.68;5.19;;;;;;;11.54;84.21;99793.78;2006776;80;20200;-78
2021/08/17 05:59:01;;;;;;;6.88;4.94;;;;;;;11.93;82.91;99803.25;2007584;80;20173;-78
2021/08/17 06:02:04;;;;;;;6.16;5.14;;;;;;;12.23;81.84;99806.63;2005848;78;22878;-76
2021/08/17 06:05:07;;;;;;;8.05;5.82;;;;;;;12.20;81.55;99811.81;2007324;80;20573;-77
2021/08/17 06:08:10;;;;;;;7.53;5.96;;;;;;;12.25;81.24;99818.75;2007040;80;20205;-76
2021/08/17 06:11:13;;;;;;;10.35;6.25;;;;;;;12.55;80.70;99814.25;2006989;80;20818;-76
2021/08/17 06:14:16;;;;;;;7.94;5.81;;;;;;;12.88;80.16;99807.97;2006473;80;20202;-76
2021/08/17 06:17:19;;;;;;;9.61;6.15;;;;;;;13.18;79.47;99802.56;2002250;78;22776;-78
2021/08/17 06:20:21;;;;;;;8.69;6.85;;;;;;;13.45;78.50;99790.13;2001690;81;20743;-77
2021/08/17 06:23:24;;;;;;;9.65;6.84;;;;;;;13.77;77.96;99788.06;2002253;81;20247;-75
2021/08/17 06:26:27;;;;;;;9.40;6.96;;;;;;;14.11;77.09;99798.09;2001759;81;20178;-75
2021/08/17 06:29:29;;;;;;;9.70;7.24;;;;;;;14.55;75.89;99797.56;2001785;81;20162;-75
2021/08/17 06:32:32;;;;;;;13.98;8.27;;;;;;;14.92;74.56;99813.59;2005201;77;22656;-76
2021/08/17 06:35:34;;;;;;;13.74;8.06;;;;;;;15.21;73.26;99812.25;2006769;80;20231;-75
2021/08/17 06:38:37;;;;;;;9.48;7.50;;;;;;;15.38;72.45;99816.31;2007292;80;20966;-76
2021/08/17 06:41:40;;;;;;;10.02;7.54;;;;;;;15.49;72.35;99823.97;2006723;80;20230;-76
2021/08/17 06:44:42;;;;;;;13.04;8.30;;;;;;;15.24;73.10;99833.13;2006721;80;20169;-75
2021/08/17 06:47:52;;;;;;;13.91;9.00;;;;;;;14.88;74.22;99834.53;2007532;78;22119;-75
2021/08/17 06:51:14;;;;;;;12.13;8.71;;;;;;;14.67;75.40;99828.75;2007917;80;20169;-75
2021/08/17 06:54:17;;;;;;;12.75;8.93;;;;;;;14.87;75.01;99827.59;2007457;80;20201;-74
2021/08/17 06:57:19;;;;;;;13.43;9.18;;;;;;;15.09;75.01;99827.25;2007410;80;20209;-75
2021/08/17 07:00:22;;;;;;;13.11;9.64;;;;;;;15.40;74.24;99818.91;2006754;78;20189;-74
2021/08/17 07:03:25;;;;;;;14.81;9.90;;;;;;;15.71;73.75;99827.97;2002462;81;20732;-74
2021/08/17 07:06:28;;;;;;;16.95;10.16;;;;;;;16.00;72.86;99816.97;2002198;80;20189;-74
2021/08/17 07:09:31;;;;;;;15.88;10.93;;;;;;;16.35;72.02;99825.00;2002424;81;20749;-74
2021/08/17 07:12:33;;;;;;;15.10;10.10;;;;;;;16.57;70.69;99828.88;2002563;81;20243;-74
2021/08/17 07:15:36;;;;;;;16.42;10.30;;;;;;;16.92;70.47;99836.84;2001640;78;20314;-74
2021/08/17 07:18:39;;;;;;;14.74;10.94;;;;;;;17.15;70.04;99841.56;2002850;81;20178;-74
2021/08/17 07:21:41;;;;;;;15.02;11.69;;;;;;;17.32;69.72;99833.28;2002874;81;20705;-74
2021/08/17 07:24:44;;;;;;;17.73;11.66;;;;;;;17.45;69.16;99831.22;2002015;81;20207;-74
2021/08/17 07:27:47;;;;;;;17.52;11.10;;;;;;;17.05;68.38;99831.31;2003142;81;20196;-75
2021/08/17 07:30:49;;;;;;;15.45;10.85;;;;;;;16.82;69.31;99822.22;2002781;78;20211;-74
2021/08/17 07:33:52;;;;;;;18.58;12.65;;;;;;;16.68;69.16;99819.03;2007627;80;20220;-74
2021/08/17 07:36:55;;;;;;;17.30;11.79;;;;;;;16.61;69.67;99814.81;2007718;80;20198;-74
2021/08/17 07:39:58;;;;;;;15.69;11.70;;;;;;;16.22;70.18;99816.53;2007198;80;21041;-74
2021/08/17 07:43:00;;;;;;;15.05;11.11;;;;;;;16.06;71.84;99828.19;2007474;80;20197;-74
2021/08/17 07:46:03;;;;;;;15.19;11.06;;;;;;;16.16;71.39;99821.91;2004871;78;20973;-74
2021/08/17 07:49:16;;;;;;;15.86;12.01;;;;;;;16.55;71.52;99830.69;2005560;80;20225;-75
2021/08/17 07:52:19;;;;;;;15.63;10.86;;;;;;;16.67;70.82;99821.69;2001663;81;21019;-74
2021/08/17 07:55:22;;;;;;;16.11;11.75;;;;;;;16.75;70.23;99831.13;2001783;81;20231;-75
2021/08/17 07:58:24;;;;;;;15.64;11.26;;;;;;;16.72;70.47;99832.97;2003074;81;20200;-74
2021/08/17 08:01:27;;;;;;;18.30;10.73;;;;;;;16.70;70.34;99829.53;2003467;78;20186;-74
2021/08/17 08:04:30;;;;;;;15.27;10.89;;;;;;;16.57;70.93;99819.25;2007307;80;20238;-76
2021/08/17 08:07:33;;;;;;;14.25;11.09;;;;;;;16.50;71.25;99833.38;2007391;80;20173;-74
2021/08/17 08:10:35;;;;;;;15.06;11.45;;;;;;;16.44;70.84;99836.13;2007393;80;20169;-74
2021/08/17 08:13:38;;;;;;;14.55;11.56;;;;;;;16.50;71.19;99825.50;2006930;80;20672;-75
2021/08/17 08:16:41;;;;;;;14.36;11.04;;;;;;;16.49;71.38;99836.91;2003685;78;22652;-74
2021/08/17 08:19:45;;;;;;;14.41;10.66;;;;;;;16.46;69.70;99836.09;2002300;81;20187;-74
2021/08/17 08:22:49;;;;;;;13.81;10.89;;;;;;;16.80;70.77;99831.88;2002197;81;20218;-75
2021/08/17 08:25:52;;;;;;;13.09;10.30;;;;;;;17.27;70.65;99824.66;2002125;81;20205;-74
2021/08/17 08:28:55;;;;;;;15.45;10.64;;;;;;;17.58;68.23;99823.84;2002474;81;20196;-75
2021/08/17 08:31:58;;;;;;;14.74;11.21;;;;;;;17.72;67.27;99827.03;2004744;78;21033;-74
2021/08/17 08:35:01;;;;;;;13.29;10.44;;;;;;;17.70;66.27;99829.69;2007437;80;20223;-74
2021/08/17 08:38:04;;;;;;;18.16;11.05;;;;;;;17.66;67.15;99835.91;2003850;80;20189;-74
2021/08/17 08:41:07;;;;;;;13.36;9.80;;;;;;;17.71;67.74;99843.69;2006757;80;20615;-74
2021/08/17 08:44:10;;;;;;;12.14;9.89;;;;;;;17.97;67.44;99835.13;2007078;80;20550;-74
2021/08/17 08:47:13;;;;;;;13.01;9.84;;;;;;;18.27;63.78;99830.75;2002615;78;20769;-74
2021/08/17 08:50:16;;;;;;;12.16;9.73;;;;;;;18.26;63.44;99816.75;2001995;81;20945;-74
2021/08/17 08:53:20;;;;;;;11.59;9.31;;;;;;;18.25;62.46;99819.44;2002075;81;20193;-74
2021/08/17 08:56:27;;;;;;;11.31;9.05;;;;;;;18.30;61.88;99802.59;2001501;81;20223;-74
2021/08/17 08:59:29;;;;;;;14.13;10.71;;;;;;;18.51;63.07;99795.88;2002295;81;20169;-74
2021/08/17 09:02:32;;;;;;;14.99;10.76;;;;;;;18.66;64.40;99805.06;2001430;78;20673;-74
2021/08/17 09:05:52;;;;;;;11.86;9.99;;;;;;;18.74;65.51;99810.97;2001822;81;20211;-74
2021/08/17 09:09:16;;;;;;;16.14;10.20;;;;;;;18.62;65.25;99801.66;2001570;81;20287;-74
2021/08/17 09:12:32;;;;;;;16.33;10.93;;;;;;;18.51;65.67;99792.38;2002006;81;20185;-74
2021/08/17 09:15:36;;;;;;;14.02;10.50;;;;;;;18.39;65.57;99789.22;2001541;78;20317;-74
2021/08/17 09:18:39;;;;;;;15.57;11.18;;;;;;;18.40;65.31;99793.56;2001229;81;20189;-74
2021/08/17 09:21:42;;;;;;;12.06;9.30;;;;;;;18.56;64.99;99793.97;2002696;81;20284;-74
2021/08/17 09:24:47;;;;;;;14.61;9.85;;;;;;;18.67;63.64;99802.44;2001552;81;20259;-74
2021/08/17 09:27:50;;;;;;;12.40;9.48;;;;;;;18.83;63.55;99804.56;2002232;81;20181;-74
2021/08/17 09:30:52;;;;;;;13.29;9.06;;;;;;;19.19;61.87;99797.25;2002501;78;21314;-74
2021/08/17 09:33:55;;;;;;;12.59;9.25;;;;;;;19.54;61.30;99786.41;2007184;80;20463;-74
2021/08/17 09:37:01;;;;;;;11.20;8.63;;;;;;;19.72;60.84;99791.94;2007364;80;20209;-73
2021/08/17 09:40:04;;;;;;;10.85;8.50;;;;;;;19.51;59.43;99798.81;2006402;80;20296;-73
2021/08/17 09:43:22;;;;;;;11.68;8.32;;;;;;;19.35;60.59;99808.13;2007168;80;20228;-73
2021/08/17 09:46:31;;;;;;;11.52;8.44;;;;;;;19.16;60.70;99803.47;2005545;79;20342;-73
2021/08/17 09:49:34;;;;;;;8.75;7.88;;;;;;;19.05;61.04;99796.88;2007022;80;21111;-75
2021/08/17 09:52:36;;;;;;;9.68;7.85;;;;;;;18.92;60.54;99785.84;2007172;80;20205;-75
2021/08/17 09:55:46;;;;;;;9.84;7.46;;;;;;;18.81;61.45;99780.94;2009116;80;20199;-75
2021/08/17 09:58:49;;;;;;;7.76;6.22;;;;;;;18.79;59.88;99795.91;2005469;80;20169;-75
2021/08/17 10:01:53;;;;;;;7.63;6.41;;;;;;;18.86;59.01;99791.31;2001280;78;20645;-74
2021/08/17 10:04:56;;;;;;;9.59;6.57;;;;;;;18.93;58.60;99783.19;2000801;81;20225;-75
2021/08/17 10:07:58;;;;;;;7.19;6.24;;;;;;;18.96;58.46;99777.81;2000688;81;20192;-75
2021/08/17 10:11:02;;;;;;;8.41;5.69;;;;;;;18.97;58.40;99769.00;2000038;81;20186;-75
2021/08/17 10:14:05;;;;;;;7.09;5.75;;;;;;;19.29;57.00;99767.06;2000708;81;20239;-75
2021/08/17 10:17:07;;;;;;;8.52;5.35;;;;;;;19.54;54.95;99760.06;2002780;78;20985;-75
2021/08/17 10:20:10;;;;;;;7.70;5.63;;;;;;;19.46;51.40;99758.59;2005590;80;20229;-75
2021/08/17 10:23:16;;;;;;;8.88;5.69;;;;;;;19.94;53.51;99755.16;2005832;80;20202;-75
2021/08/17 10:26:30;;;;;;;5.54;4.88;;;;;;;20.40;52.13;99741.94;2006279;80;20193;-75
2021/08/17 10:29:33;;;;;;;5.11;4.18;;;;;;;20.39;49.00;99742.00;2006991;80;20190;-75
2021/08/17 10:32:56;;;;;;;6.25;4.30;;;;;;;20.25;46.58;99742.53;2001391;78;21475;-75
2021/08/17 10:35:59;;;;;;;5.20;4.55;;;;;;;20.47;49.61;99743.47;2002414;81;20169;-75
2021/08/17 10:39:26;;;;;;;6.28;4.28;;;;;;;20.91;49.98;99740.81;2002143;81;20166;-75
2021/08/17 10:42:29;;;;;;;6.50;4.43;;;;;;;21.16;48.59;99748.56;2002142;81;20700;-75
2021/08/17 10:45:35;;;;;;;5.64;4.51;;;;;;;21.20;47.35;99758.09;2001836;78;29119;-75
2021/08/17 10:48:48;;;;;;;5.13;4.31;;;;;;;21.24;47.53;99753.56;2007262;80;20181;-75
2021/08/17 10:51:54;;;;;;;6.35;4.75;;;;;;;21.17;46.56;99736.22;2007058;80;20193;-75
2021/08/17 10:55:24;;;;;;;6.60;4.61;;;;;;;21.36;46.77;99727.50;2005283;80;20178;-75
2021/08/17 10:58:41;;;;;;;4.46;4.06;;;;;;;21.55;48.40;99726.72;2006810;80;21284;-75
2021/08/17 11:01:47;;;;;;;3.95;3.42;;;;;;;21.31;45.67;99723.31;2002182;78;20733;-75
2021/08/17 11:04:51;;;;;;;4.61;4.09;;;;;;;21.26;46.86;99720.91;2001574;81;20182;-75
2021/08/17 11:08:31;;;;;;;4.71;3.84;;;;;;;21.16;45.78;99721.31;2000924;81;20191;-75
2021/08/17 11:11:35;;;;;;;5.55;4.46;;;;;;;20.90;45.76;99723.25;2000554;81;20210;-77
2021/08/17 11:14:39;;;;;;;4.18;3.86;;;;;;;20.60;46.73;99729.78;2001292;81;20768;-77
2021/08/17 11:17:42;;;;;;;5.13;4.30;;;;;;;20.48;48.38;99737.28;2004823;78;21729;-77
2021/08/17 11:20:56;;;;;;;4.91;4.01;;;;;;;20.46;48.14;99739.09;2006240;80;20226;-77
2021/08/17 11:24:51;;;;;;;6.60;4.30;;;;;;;20.52;48.35;99741.50;2006400;80;20205;-76
2021/08/17 11:27:54;;;;;;;4.68;4.20;;;;;;;20.79;49.48;99728.13;1979677;81;20210;-76
2021/08/17 11:30:59;;;;;;;5.40;4.45;;;;;;;20.87;47.58;99736.59;1977567;79;21089;-77
2021/08/17 11:34:16;;;;;;;4.50;3.89;;;;;;;20.71;46.65;99738.13;1976780;82;20331;-76
2021/08/17 11:37:18;;;;;;;4.81;4.01;;;;;;;20.67;47.28;99747.97;1976014;82;20185;-76
2021/08/17 11:40:22;;;;;;;4.41;3.80;;;;;;;20.47;47.93;99738.19;1975326;82;20298;-77
2021/08/17 11:43:24;;;;;;;5.40;3.86;;;;;;;20.42;49.98;99731.38;1974858;82;20731;-76
2021/08/17 11:46:27;;;;;;;8.10;4.59;;;;;;;20.49;49.62;99733.72;1966295;80;996698;-77
2021/08/17 11:49:30;;;;;;;6.20;4.26;;;;;;;20.46;48.28;99728.53;1980779;81;20201;-77
2021/08/17 11:52:41;;;;;;;6.36;4.36;;;;;;;20.48;49.83;99723.22;1979753;81;20881;-76
2021/08/17 11:55:44;;;;;;;4.81;4.38;;;;;;;20.58;48.94;99731.63;1979119;81;20169;-76
2021/08/17 11:58:52;;;;;;;4.90;4.45;;;;;;;20.55;48.56;99719.41;1995370;80;20209;-76
2021/08/17 12:02:01;;;;;;;4.48;4.08;;;;;;;20.55;50.08;99710.63;2001734;78;25219;-77
2021/08/17 12:05:07;;;;;;;4.85;4.43;;;;;;;20.66;49.80;99719.84;2001612;81;20166;-77
2021/08/17 12:08:11;;;;;;;4.70;4.10;;;;;;;20.68;49.24;99718.00;2001175;81;20381;-77
2021/08/17 12:11:20;;;;;;;5.29;4.05;;;;;;;20.80;49.42;99711.34;2002057;81;20265;-76
2021/08/17 12:14:24;;;;;;;5.20;4.01;;;;;;;20.95;48.59;99717.78;2000372;81;20189;-75
2021/08/17 12:17:26;;;;;;;4.61;4.11;;;;;;;21.05;49.14;99696.22;2004396;78;20262;-76
2021/08/17 12:20:30;;;;;;;7.09;4.29;;;;;;;21.31;48.27;99703.06;2006940;80;20185;-76
2021/08/17 12:23:36;;;;;;;5.88;3.97;;;;;;;21.45;46.24;99694.53;2007000;80;20222;-76
2021/08/17 12:26:38;;;;;;;6.49;4.53;;;;;;;21.55;48.28;99680.00;2007747;80;20198;-76
2021/08/17 12:29:42;;;;;;;5.15;4.53;;;;;;;21.55;47.08;99684.44;2005961;80;20851;-76
2021/08/17 12:32:53;;;;;;;5.66;4.97;;;;;;;21.50;46.42;99686.41;2000123;78;24551;-76
2021/08/17 12:35:56;;;;;;;6.14;5.05;;;;;;;21.46;46.99;99682.19;1998791;81;20997;-75
2021/08/17 12:41:45;;;;;;;5.46;4.55;;;;;;;21.44;47.54;99673.47;2068384;77;20308;-73
2021/08/17 12:44:49;;;;;;;6.76;5.50;;;;;;;21.45;47.48;99662.81;2060647;78;20198;-74
2021/08/17 12:48:01;;;;;;;7.09;5.07;;;;;;;21.50;46.86;99655.53;2043898;78;20481;-75
2021/08/17 12:51:04;;;;;;;7.38;5.50;;;;;;;21.53;46.68;99647.47;2042885;79;20208;-74
2021/08/17 12:54:06;;;;;;;8.82;5.30;;;;;;;21.49;45.05;99643.25;2040819;79;20273;-74
2021/08/17 12:57:09;;;;;;;5.94;5.34;;;;;;;21.36;46.67;99634.16;2041886;79;20884;-74
2021/08/17 13:00:14;;;;;;;7.81;5.94;;;;;;;21.31;47.18;99633.50;2042247;79;20194;-74
2021/08/17 13:03:17;;;;;;;6.36;5.70;;;;;;;21.19;47.20;99641.97;2048206;76;20252;-74
2021/08/17 13:06:20;;;;;;;8.48;6.31;;;;;;;21.02;46.94;99622.44;2048387;79;20203;-75
2021/08/17 13:09:23;;;;;;;8.39;5.56;;;;;;;20.90;47.09;99628.22;2047966;79;20250;-75
2021/08/17 13:12:27;;;;;;;8.00;5.76;;;;;;;20.79;48.23;99622.53;2048657;79;20817;-73
2021/08/17 13:15:30;;;;;;;7.88;5.71;;;;;;;20.71;49.32;99619.38;2045615;76;21826;-74
2021/08/17 13:18:32;;;;;;;6.05;5.20;;;;;;;20.70;49.98;99615.88;2043047;79;20180;-74
2021/08/17 13:21:35;;;;;;;6.15;5.44;;;;;;;20.59;50.23;99614.59;2042133;79;20228;-74
2021/08/17 13:24:38;;;;;;;6.45;5.69;;;;;;;20.49;50.11;99609.72;2042802;79;20325;-74
2021/08/17 13:27:41;;;;;;;8.09;5.49;;;;;;;20.37;48.80;99612.81;2046246;79;20312;-74
2021/08/17 13:30:43;;;;;;;7.16;5.69;;;;;;;20.13;49.36;99606.78;2042625;76;20381;-75
2021/08/17 13:33:47;;;;;;;8.55;6.61;;;;;;;19.99;50.96;99614.38;2047875;79;20644;-75
2021/08/17 13:36:50;;;;;;;7.50;6.11;;;;;;;19.84;51.76;99604.41;2048326;79;20886;-74
2021/08/17 13:39:52;;;;;;;10.20;6.07;;;;;;;19.79;51.13;99606.38;2047652;79;20168;-74
2021/08/17 13:42:58;;;;;;;8.11;6.11;;;;;;;19.72;52.50;99597.84;2048408;79;20208;-74
2021/08/17 13:46:00;;;;;;;11.04;6.11;;;;;;;19.63;53.33;99594.72;2045655;77;20198;-74
2021/08/17 13:49:04;;;;;;;9.07;5.88;;;;;;;19.61;54.44;99584.22;2042877;79;20211;-74
2021/08/17 13:52:06;;;;;;;7.60;5.89;;;;;;;19.58;53.83;99592.25;2040938;79;20198;-74
2021/08/17 13:55:09;;;;;;;8.11;6.21;;;;;;;19.54;54.99;99585.34;2038892;79;20995;-74
2021/08/17 13:58:12;;;;;;;8.51;5.70;;;;;;;19.56;56.31;99594.91;2039055;79;20173;-73
2021/08/17 14:01:16;;;;;;;6.74;5.75;;;;;;;19.53;55.72;99583.63;2038209;76;20196;-74
2021/08/17 14:04:19;;;;;;;9.05;6.30;;;;;;;19.49;55.39;99588.13;2038859;79;20202;-74
2021/08/17 14:07:22;;;;;;;8.69;5.39;;;;;;;19.38;55.26;99586.81;2039179;79;20183;-74
2021/08/17 14:10:24;;;;;;;8.09;5.88;;;;;;;19.29;56.42;99578.34;2038223;79;20191;-74
2021/08/17 14:13:27;;;;;;;11.61;6.30;;;;;;;19.26;57.32;99578.47;2039394;79;20180;-74
2021/08/17 14:16:30;;;;;;;8.34;6.13;;;;;;;19.25;57.47;99575.91;2042686;77;26765;-74
2021/08/17 14:19:32;;;;;;;7.53;5.96;;;;;;;19.20;56.80;99578.69;2044477;79;20922;-74
2021/08/17 14:22:35;;;;;;;8.66;6.65;;;;;;;19.13;56.90;99576.34;2044638;79;20289;-74
2021/08/17 14:25:38;;;;;;;7.39;6.22;;;;;;;19.17;57.50;99583.19;2044163;79;20228;-74
2021/08/17 14:28:40;;;;;;;12.10;6.03;;;;;;;19.22;57.71;99590.03;2044258;79;20216;-74